Time;durP1;ratioP1;P1;durP2;ratioP2;P2;SDS_P1;SDS_P2;PMS_P1;PMS_P2;Temp;Humidity;BMP_temperature;BMP_pressure;BME280_temperature;BME280_humidity;BME280_pressure;Samples;Min_cycle;Max_cycle;Signal;HPM_P1;HPM_P2
2023/04/20 00:00:47;;;;;;;10.50;5.80;;;;;;;7.62;59.09;101211.38;6142570;23;20085;-89
2023/04/20 00:03:13;;;;;;;10.13;6.47;;;;;;;7.59;59.05;101203.81;6137986;23;20069;-90
2023/04/20 00:05:40;;;;;;;10.05;6.35;;;;;;;7.58;59.01;101199.56;6139614;23;20355;-90
2023/04/20 00:08:07;;;;;;;10.20;6.22;;;;;;;7.52;59.46;101200.06;6137646;23;20077;-90
2023/04/20 00:10:34;;;;;;;11.77;6.28;;;;;;;7.55;59.45;101194.63;6134825;23;20021;-89
2023/04/20 00:13:01;;;;;;;10.27;6.35;;;;;;;7.56;59.00;101196.25;6136716;23;20021;-90
2023/04/20 00:15:30;;;;;;;11.57;6.07;;;;;;;7.57;59.42;101189.25;6135762;23;20022;-91
2023/04/20 00:17:57;;;;;;;10.77;5.78;;;;;;;7.54;59.64;101187.75;6136613;23;20199;-90
2023/04/20 00:20:24;;;;;;;10.55;6.10;;;;;;;7.50;59.56;101175.94;6136737;23;20026;-91
2023/04/20 00:22:51;;;;;;;8.88;6.00;;;;;;;7.50;59.34;101164.69;6138672;23;20030;-90
2023/04/20 00:25:18;;;;;;;8.93;6.10;;;;;;;7.49;59.60;101171.66;6138507;23;20028;-91
2023/04/20 00:27:44;;;;;;;12.82;5.93;;;;;;;7.42;59.96;101175.69;6135416;23;20033;-91
2023/04/20 00:30:13;;;;;;;8.98;6.00;;;;;;;7.37;59.85;101154.41;6135520;23;20184;-91
2023/04/20 00:32:41;;;;;;;10.45;6.28;;;;;;;7.40;59.96;101159.38;6136674;23;20081;-90
2023/04/20 00:35:08;;;;;;;10.95;6.30;;;;;;;7.35;59.97;101139.88;6136860;23;20022;-92
2023/04/20 00:37:36;;;;;;;10.25;6.25;;;;;;;7.27;60.08;101132.66;6139618;23;20367;-90
2023/04/20 00:40:03;;;;;;;13.73;6.45;;;;;;;7.46;60.02;101153.69;6139025;23;20022;-91
2023/04/20 00:42:30;;;;;;;11.70;6.82;;;;;;;7.43;59.77;101133.09;6140224;23;20061;-90
2023/04/20 00:44:57;;;;;;;9.93;5.95;;;;;;;7.47;59.98;101139.72;6139675;23;20021;-90
2023/04/20 00:47:24;;;;;;;12.63;6.07;;;;;;;7.38;60.12;101135.25;6133895;23;20032;-90
2023/04/20 00:49:54;;;;;;;8.85;6.30;;;;;;;7.33;60.21;101119.97;6137501;23;20026;-90
2023/04/20 00:52:22;;;;;;;10.25;6.40;;;;;;;7.29;59.80;101104.72;6135936;23;20016;-90
2023/04/20 00:54:48;;;;;;;8.10;5.93;;;;;;;7.44;59.92;101126.13;6135167;23;20026;-91
2023/04/20 00:57:22;;;;;;;13.85;6.88;;;;;;;7.44;59.84;101131.31;6134829;23;20022;-90
2023/04/20 00:59:50;;;;;;;14.30;6.40;;;;;;;7.46;59.88;101122.44;6132945;23;20014;-90
2023/04/20 01:02:17;;;;;;;9.02;5.63;;;;;;;7.41;60.00;101111.56;6135491;23;20022;-91
2023/04/20 01:04:44;;;;;;;8.63;6.03;;;;;;;7.39;60.10;101097.00;6137000;23;20022;-89
2023/04/20 01:07:12;;;;;;;10.30;6.00;;;;;;;7.44;60.20;101113.91;6132138;23;20319;-90
2023/04/20 01:09:39;;;;;;;10.85;6.10;;;;;;;7.45;60.29;101105.16;6135710;23;20018;-90
2023/04/20 01:12:06;;;;;;;13.00;6.25;;;;;;;7.40;60.27;101091.69;6136726;23;20080;-91
2023/04/20 01:14:33;;;;;;;9.77;6.53;;;;;;;7.43;60.23;101078.41;6137638;23;20033;-90
2023/04/20 01:16:59;;;;;;;9.63;5.70;;;;;;;7.52;60.24;101116.72;6136892;23;20026;-90
2023/04/20 01:19:26;;;;;;;8.93;5.90;;;;;;;7.53;60.19;101102.75;6135120;23;20021;-90
2023/04/20 01:21:53;;;;;;;11.20;6.82;;;;;;;7.47;60.14;101085.03;6137449;23;20033;-90
2023/04/20 01:24:21;;;;;;;9.60;6.13;;;;;;;7.41;60.41;101082.91;6136502;23;20086;-91
2023/04/20 01:26:48;;;;;;;15.80;6.80;;;;;;;7.45;60.86;101099.13;6137491;23;20125;-90
2023/04/20 01:29:15;;;;;;;12.10;6.40;;;;;;;7.38;60.96;101098.78;6138174;23;20045;-90
2023/04/20 01:31:41;;;;;;;10.30;6.40;;;;;;;7.40;60.63;101096.88;6140047;23;20036;-90
2023/04/20 01:34:08;;;;;;;9.18;6.45;;;;;;;7.34;60.48;101081.75;6141291;23;20026;-90
2023/04/20 01:36:35;;;;;;;11.40;5.88;;;;;;;7.34;60.07;101073.94;6139099;23;20097;-91
2023/04/20 01:39:02;;;;;;;10.18;6.18;;;;;;;7.37;60.13;101078.91;6136969;23;20056;-90
2023/04/20 01:41:30;;;;;;;9.40;6.07;;;;;;;7.35;60.01;101086.03;6146674;23;20026;-89
2023/04/20 01:43:57;;;;;;;9.02;5.75;;;;;;;7.33;60.07;101085.31;6152170;23;20044;-91
2023/04/20 01:46:23;;;;;;;10.93;6.28;;;;;;;7.31;60.10;101085.44;6135432;23;20010;-91
2023/04/20 01:48:50;;;;;;;10.57;6.20;;;;;;;7.33;60.08;101082.72;6136253;23;20041;-91
2023/04/20 01:51:17;;;;;;;10.55;5.70;;;;;;;7.34;60.03;101076.56;6134251;23;20050;-90
2023/04/20 01:53:44;;;;;;;12.35;6.15;;;;;;;7.28;59.98;101066.63;6134853;23;20036;-90
2023/04/20 01:56:11;;;;;;;11.27;6.43;;;;;;;7.34;60.01;101058.34;6135131;23;20049;-90
2023/04/20 01:58:39;;;;;;;10.40;5.95;;;;;;;7.40;60.12;101068.25;6133416;23;20022;-91
2023/04/20 02:01:06;;;;;;;10.43;6.07;;;;;;;7.38;60.38;101062.34;6134007;23;20494;-90
2023/04/20 02:03:32;;;;;;;11.02;6.82;;;;;;;7.34;60.41;101071.34;6135912;23;20025;-91
2023/04/20 02:05:59;;;;;;;11.15;6.30;;;;;;;7.39;60.65;101066.59;6134331;23;20018;-92
2023/04/20 02:08:26;;;;;;;11.65;6.45;;;;;;;7.41;60.00;101064.69;6132817;23;20025;-91
2023/04/20 02:10:53;;;;;;;10.25;6.38;;;;;;;7.34;59.43;101037.50;6133220;23;20034;-91
2023/04/20 02:13:20;;;;;;;10.80;5.85;;;;;;;7.33;59.55;101036.69;6133165;23;20026;-91
2023/04/20 02:15:48;;;;;;;10.80;6.10;;;;;;;7.35;59.70;101038.34;6132208;23;20457;-91
2023/04/20 02:18:15;;;;;;;11.55;6.25;;;;;;;7.28;59.96;101036.22;6134715;23;20026;-91
2023/04/20 02:20:42;;;;;;;11.00;6.15;;;;;;;7.22;60.45;101034.13;6134354;23;20032;-91
2023/04/20 02:23:08;;;;;;;8.95;5.82;;;;;;;7.28;60.43;101031.03;6134705;23;20352;-91
2023/04/20 02:25:35;;;;;;;8.25;5.60;;;;;;;7.27;60.25;101025.94;6134192;23;20061;-91
2023/04/20 02:28:02;;;;;;;11.45;5.68;;;;;;;7.27;60.62;101012.91;6136488;23;20026;-90
2023/04/20 02:30:29;;;;;;;10.18;6.22;;;;;;;7.20;60.61;101006.56;6139576;23;20021;-91
2023/04/20 02:32:57;;;;;;;11.15;6.05;;;;;;;7.18;60.81;101013.66;6136755;23;20026;-91
2023/04/20 02:35:24;;;;;;;8.75;6.00;;;;;;;7.16;61.17;101011.19;6134238;23;20026;-91
2023/04/20 02:37:52;;;;;;;11.93;6.00;;;;;;;7.15;61.34;101003.50;6138385;23;20022;-90
2023/04/20 02:40:18;;;;;;;8.85;6.53;;;;;;;7.20;61.49;101006.56;6147794;23;20065;-77
2023/04/20 02:42:45;;;;;;;10.15;5.78;;;;;;;7.13;61.32;100997.59;6163157;23;20029;-80
2023/04/20 02:45:12;;;;;;;10.77;6.20;;;;;;;7.07;61.64;100998.13;6162572;23;20033;-82
2023/04/20 02:47:38;;;;;;;8.07;5.22;;;;;;;7.14;61.35;100997.47;6162980;23;20060;-80
2023/04/20 02:50:08;;;;;;;8.57;5.88;;;;;;;7.09;61.67;101001.44;6162521;23;20053;-80
2023/04/20 02:52:34;;;;;;;11.25;6.45;;;;;;;7.08;61.54;100999.78;6165200;23;20069;-79
2023/04/20 02:55:01;;;;;;;9.98;5.82;;;;;;;7.11;61.74;100996.91;6164748;23;20022;-80
2023/04/20 02:57:28;;;;;;;8.25;5.95;;;;;;;7.06;61.35;100989.50;6166209;23;20084;-81
2023/04/20 02:59:54;;;;;;;10.40;5.95;;;;;;;6.97;60.95;100978.03;6165613;23;20242;-80
2023/04/20 03:02:21;;;;;;;8.63;5.80;;;;;;;6.92;60.85;100985.41;6165710;23;20056;-77
2023/04/20 03:04:47;;;;;;;9.43;5.80;;;;;;;6.96;60.99;100979.00;6180738;23;20020;-80
2023/04/20 03:07:16;;;;;;;9.95;5.90;;;;;;;6.97;60.75;100972.84;6180926;23;20065;-78
2023/04/20 03:09:43;;;;;;;11.95;5.60;;;;;;;6.97;60.46;100964.22;6178917;23;20021;-79
2023/04/20 03:12:10;;;;;;;7.90;5.30;;;;;;;6.99;60.05;100963.13;6177748;23;20029;-78
2023/04/20 03:14:36;;;;;;;8.88;5.22;;;;;;;6.92;59.97;100961.97;6173821;23;20021;-78
2023/04/20 03:17:03;;;;;;;11.93;6.05;;;;;;;6.91;59.79;100962.94;6165617;23;20025;-80
2023/04/20 03:19:29;;;;;;;11.35;5.72;;;;;;;6.91;60.01;100964.72;6164260;23;20031;-79
2023/04/20 03:21:56;;;;;;;8.52;5.40;;;;;;;6.93;59.77;100966.22;6165353;23;20026;-80
2023/04/20 03:24:24;;;;;;;12.35;5.47;;;;;;;6.93;60.19;100963.63;6165892;23;20036;-80
2023/04/20 03:26:51;;;;;;;9.38;5.28;;;;;;;6.93;59.87;100968.84;6164985;23;20059;-79
2023/04/20 03:29:17;;;;;;;10.68;5.20;;;;;;;6.92;60.16;100975.00;6164900;23;20021;-80
2023/04/20 03:31:44;;;;;;;11.48;5.65;;;;;;;6.93;59.68;100975.81;6164745;23;20026;-78
2023/04/20 03:34:10;;;;;;;11.88;5.55;;;;;;;6.90;59.72;100968.25;6165402;23;20025;-80
2023/04/20 03:36:37;;;;;;;9.70;5.40;;;;;;;6.94;59.76;100973.09;6164765;23;20026;-78
2023/04/20 03:39:04;;;;;;;9.23;5.53;;;;;;;6.92;59.63;100956.78;6165343;23;20025;-79
2023/04/20 03:41:32;;;;;;;13.52;5.80;;;;;;;6.96;59.34;100960.78;6193337;23;20342;-79
2023/04/20 03:43:59;;;;;;;9.63;5.57;;;;;;;6.95;59.33;100961.72;6193493;23;20032;-79
2023/04/20 03:46:25;;;;;;;11.88;5.57;;;;;;;6.97;59.71;100959.00;6192176;23;20048;-80
2023/04/20 03:48:52;;;;;;;8.85;5.43;;;;;;;6.97;59.61;100951.19;6190055;23;20024;-79
2023/04/20 03:51:18;;;;;;;11.55;5.95;;;;;;;6.97;60.09;100959.84;6190827;23;20200;-78
2023/04/20 03:53:45;;;;;;;10.85;5.38;;;;;;;7.01;60.08;100955.22;6191558;23;20063;-79
2023/04/20 03:56:12;;;;;;;10.00;5.40;;;;;;;7.02;60.52;100956.03;6191404;23;20032;-78
2023/04/20 03:58:40;;;;;;;10.80;5.60;;;;;;;7.01;60.38;100959.59;6190933;23;20095;-77
2023/04/20 04:01:08;;;;;;;12.57;5.57;;;;;;;6.96;60.68;100963.38;6190943;23;20462;-79
2023/04/20 04:03:35;;;;;;;10.70;5.47;;;;;;;6.97;61.27;100957.22;6189208;23;20025;-79
2023/04/20 04:06:02;;;;;;;8.30;5.60;;;;;;;6.95;61.27;100958.31;6188642;23;20082;-78
2023/04/20 04:08:28;;;;;;;9.65;5.55;;;;;;;7.02;61.82;100958.63;6190263;23;20048;-79
2023/04/20 04:10:55;;;;;;;12.27;6.35;;;;;;;6.99;61.64;100952.72;6192479;23;20021;-80
2023/04/20 04:13:22;;;;;;;9.90;5.28;;;;;;;6.94;61.96;100954.06;6194350;23;20028;-79
2023/04/20 04:18:32;;;;;;;;;;;;;;;6.96;63.38;100959.97;6186263;23;20020;-78
2023/04/20 04:20:58;;;;;;;10.18;5.70;;;;;;;6.84;63.52;100953.97;6187204;23;19923;-79
2023/04/20 04:23:25;;;;;;;14.25;5.97;;;;;;;6.82;63.60;100953.25;6187400;23;20048;-78
2023/04/20 04:25:52;;;;;;;14.82;5.93;;;;;;;6.81;64.07;100953.38;6189822;23;20100;-80
2023/04/20 04:28:19;;;;;;;10.57;6.07;;;;;;;6.78;64.16;100954.47;6191276;23;20465;-79
2023/04/20 04:30:46;;;;;;;8.38;5.72;;;;;;;6.78;64.72;100958.84;6190570;23;20021;-80
2023/04/20 04:33:17;;;;;;;11.52;5.65;;;;;;;6.78;64.77;100946.66;6190425;23;20338;-79
2023/04/20 04:35:44;;;;;;;9.48;6.03;;;;;;;6.80;64.89;100949.13;6189470;23;20021;-79
2023/04/20 04:38:11;;;;;;;9.48;5.45;;;;;;;6.78;65.40;100953.63;6189637;23;20053;-79
2023/04/20 04:40:38;;;;;;;10.43;6.13;;;;;;;6.79;65.89;100950.91;6187711;23;20017;-80
2023/04/20 04:43:06;;;;;;;8.50;5.95;;;;;;;6.82;66.10;100945.47;6188215;23;20032;-79
2023/04/20 04:45:33;;;;;;;9.45;6.00;;;;;;;6.82;66.45;100945.47;6189085;23;20028;-80
2023/04/20 04:47:59;;;;;;;12.25;6.80;;;;;;;6.83;67.13;100946.28;6189942;23;20113;-78
2023/04/20 04:50:27;;;;;;;11.30;6.05;;;;;;;6.81;67.52;100956.81;6189970;23;20056;-78
2023/04/20 04:52:54;;;;;;;9.45;5.93;;;;;;;6.83;67.69;100949.72;6191316;23;20049;-79
2023/04/20 04:55:21;;;;;;;13.13;6.25;;;;;;;6.84;67.52;100953.97;6192092;23;20055;-79
2023/04/20 04:57:47;;;;;;;12.05;6.55;;;;;;;6.89;67.76;100951.81;6192332;23;20067;-78
2023/04/20 05:00:15;;;;;;;10.52;6.82;;;;;;;6.85;68.15;100950.41;6189706;23;20096;-78
2023/04/20 05:02:42;;;;;;;14.38;6.38;;;;;;;6.90;69.03;100953.47;6189939;23;20036;-78
2023/04/20 05:05:09;;;;;;;14.25;6.85;;;;;;;6.84;69.41;100953.97;6189520;23;20101;-78
2023/04/20 05:07:38;;;;;;;11.98;6.85;;;;;;;6.90;69.87;100952.66;6189163;23;20055;-78
2023/04/20 05:10:07;;;;;;;11.40;6.75;;;;;;;6.84;69.50;100948.75;6190022;23;20021;-78
2023/04/20 05:12:33;;;;;;;12.32;6.70;;;;;;;6.85;70.06;100947.81;6189755;23;20036;-78
2023/04/20 05:15:00;;;;;;;17.15;6.97;;;;;;;6.75;70.03;100953.88;6190116;23;20060;-78
2023/04/20 05:17:26;;;;;;;11.18;6.82;;;;;;;6.75;71.24;100965.09;6191861;23;20056;-78
2023/04/20 05:19:53;;;;;;;10.77;7.32;;;;;;;6.66;71.97;100958.88;6192163;23;20017;-77
2023/04/20 05:22:20;;;;;;;11.32;7.28;;;;;;;6.69;73.14;100973.41;6192841;23;20139;-77
2023/04/20 05:24:48;;;;;;;9.75;6.45;;;;;;;6.69;73.95;100976.00;6190155;23;20032;-78
2023/04/20 05:27:15;;;;;;;10.95;6.90;;;;;;;6.52;74.67;100979.13;6189112;23;20051;-78
2023/04/20 05:29:41;;;;;;;13.52;7.82;;;;;;;6.26;76.71;100989.78;6188353;23;20096;-78
2023/04/20 05:32:08;;;;;;;12.40;8.55;;;;;;;6.09;79.14;100995.47;6193048;23;20052;-77
2023/04/20 05:34:34;;;;;;;13.60;8.15;;;;;;;6.08;79.27;100983.44;6189338;23;20092;-79
2023/04/20 05:37:04;;;;;;;13.35;8.30;;;;;;;5.99;80.13;100984.97;6195174;23;20085;-77
2023/04/20 05:39:30;;;;;;;14.25;7.93;;;;;;;5.96;80.42;100971.38;6190401;23;20067;-79
2023/04/20 05:41:58;;;;;;;11.70;8.63;;;;;;;6.01;82.25;100971.88;6191216;23;20060;-79
2023/04/20 05:44:25;;;;;;;15.85;9.25;;;;;;;6.03;83.77;100974.34;6192517;23;20079;-79
2023/04/20 05:46:52;;;;;;;14.13;8.90;;;;;;;6.11;84.67;100971.97;6192260;23;20306;-78
2023/04/20 05:49:18;;;;;;;13.75;8.25;;;;;;;6.02;85.63;100968.31;6192978;23;20032;-78
2023/04/20 05:51:47;;;;;;;14.00;8.02;;;;;;;6.08;85.92;100960.06;6193189;23;20021;-79
2023/04/20 05:54:14;;;;;;;12.20;8.70;;;;;;;6.00;86.58;100962.41;6193758;23;20052;-79
2023/04/20 05:56:41;;;;;;;11.68;8.02;;;;;;;6.13;86.58;100957.94;6193809;23;20077;-79
2023/04/20 05:59:09;;;;;;;11.65;8.30;;;;;;;6.19;86.34;100957.44;6195706;23;20025;-80
2023/04/20 06:01:35;;;;;;;11.30;7.90;;;;;;;6.19;87.12;100962.63;6195125;23;20047;-79
2023/04/20 06:04:02;;;;;;;18.27;8.90;;;;;;;6.19;88.60;100970.41;6197422;23;20446;-77
2023/04/20 06:06:29;;;;;;;12.88;8.38;;;;;;;6.14;87.97;100964.78;6194603;23;20029;-79
2023/04/20 06:08:56;;;;;;;11.73;8.52;;;;;;;6.20;88.67;100953.88;6193874;23;20109;-80
2023/04/20 06:11:23;;;;;;;11.50;7.95;;;;;;;6.24;87.91;100957.91;6195512;23;20028;-79
2023/04/20 06:13:50;;;;;;;12.95;9.05;;;;;;;6.31;88.66;100956.47;6198311;23;20025;-77
2023/04/20 06:16:18;;;;;;;11.38;9.00;;;;;;;6.30;87.36;100949.63;6199634;23;20032;-79
2023/04/20 06:18:44;;;;;;;12.07;8.63;;;;;;;6.31;87.82;100940.88;6197563;23;20087;-78
2023/04/20 06:21:11;;;;;;;13.55;8.50;;;;;;;6.38;88.43;100945.59;6198072;23;20021;-78
2023/04/20 06:23:38;;;;;;;12.65;8.50;;;;;;;6.29;88.30;100939.34;6193280;23;20479;-79
2023/04/20 06:26:07;;;;;;;14.70;8.85;;;;;;;6.37;89.44;100949.97;6191457;23;20021;-78
2023/04/20 06:28:34;;;;;;;14.93;8.85;;;;;;;6.47;89.88;100942.28;6191098;23;20037;-78
2023/04/20 06:31:01;;;;;;;13.98;8.73;;;;;;;6.60;89.99;100945.56;6190270;23;20021;-79
2023/04/20 06:33:30;;;;;;;12.77;8.77;;;;;;;6.71;90.32;100937.69;6190716;23;20021;-78
2023/04/20 06:35:57;;;;;;;13.52;10.10;;;;;;;6.72;89.92;100934.16;6189885;23;20360;-79
2023/04/20 06:38:29;;;;;;;12.00;9.60;;;;;;;6.79;90.03;100937.06;6190099;23;20021;-79
2023/04/20 06:41:00;;;;;;;12.50;9.18;;;;;;;6.72;89.87;100944.53;6185644;23;20481;-78
2023/04/20 06:43:27;;;;;;;13.13;9.75;;;;;;;6.59;89.39;100938.69;6188411;23;20100;-79
2023/04/20 06:45:54;;;;;;;14.07;9.52;;;;;;;6.69;89.00;100943.97;6188661;23;20025;-79
2023/04/20 06:48:20;;;;;;;17.13;10.18;;;;;;;6.69;89.96;100939.59;6187929;23;20056;-77
2023/04/20 06:50:49;;;;;;;14.60;9.98;;;;;;;6.58;90.56;100942.25;6188808;23;20021;-80
2023/04/20 07:03:05;;;;;;;16.42;9.68;;;;;;;6.48;93.98;100941.31;5957464;23;20036;-78
2023/04/20 07:05:32;;;;;;;15.85;10.35;;;;;;;6.46;93.44;100943.22;6039553;23;20098;-78
2023/04/20 07:08:00;;;;;;;15.70;10.00;;;;;;;6.48;93.53;100930.94;6038859;23;20059;-79
2023/04/20 07:10:26;;;;;;;18.50;10.85;;;;;;;6.59;93.06;100943.91;6145874;23;20052;-79
2023/04/20 07:12:53;;;;;;;18.55;10.15;;;;;;;6.65;93.45;100948.59;6189391;23;20032;-79
2023/04/20 07:15:20;;;;;;;19.30;10.95;;;;;;;6.65;93.45;100945.97;6191480;23;20056;-78
2023/04/20 07:17:46;;;;;;;17.55;10.98;;;;;;;6.43;92.98;100943.47;6190564;23;20029;-78
2023/04/20 07:20:13;;;;;;;19.67;10.52;;;;;;;6.46;93.02;100945.81;6191112;23;20025;-77
2023/04/20 07:22:40;;;;;;;15.45;10.40;;;;;;;6.36;93.64;100943.13;6189794;23;20052;-78
2023/04/20 07:25:09;;;;;;;12.70;9.38;;;;;;;6.35;94.74;100946.66;6189199;23;20025;-78
2023/04/20 07:27:37;;;;;;;11.95;9.48;;;;;;;6.39;95.33;100942.88;6190348;23;20048;-78
2023/04/20 07:30:05;;;;;;;13.32;8.57;;;;;;;6.44;95.78;100947.72;6190380;23;20025;-78
2023/04/20 07:32:32;;;;;;;11.73;8.32;;;;;;;6.42;96.30;100949.59;6192131;23;20048;-79
2023/04/20 07:34:59;;;;;;;10.25;8.77;;;;;;;6.48;96.21;100951.72;6189166;23;20056;-79
2023/04/20 07:37:26;;;;;;;13.10;9.07;;;;;;;6.68;96.36;100935.34;6189666;23;20050;-79
2023/04/20 07:39:52;;;;;;;14.43;8.60;;;;;;;6.65;95.95;100933.81;6192082;23;20056;-79
2023/04/20 07:42:21;;;;;;;14.70;8.48;;;;;;;6.59;95.30;100944.72;6193984;23;20020;-80
2023/04/20 07:44:48;;;;;;;14.85;8.27;;;;;;;6.48;95.04;100928.31;6192126;23;20108;-78
2023/04/20 07:57:44;;;;;;;;;;;;;;;;;;;;;
2023/04/20 08:37:27;;;;;;;7.68;6.47;;;;;;;7.16;87.84;100869.81;5755520;24;20055;-79
2023/04/20 08:40:02;;;;;;;8.02;6.55;;;;;;;7.09;88.04;100873.91;5862684;24;20069;-81
2023/04/20 08:42:35;;;;;;;7.22;6.18;;;;;;;6.98;87.59;100883.44;5948265;23;20023;-79
2023/04/20 08:45:16;;;;;;;7.35;6.30;;;;;;;7.12;87.42;100879.66;6155862;23;20436;-79
2023/04/20 08:47:45;;;;;;;9.45;7.32;;;;;;;7.11;86.78;100878.00;6193710;23;20051;-78
2023/04/20 08:50:16;;;;;;;11.82;7.13;;;;;;;7.02;86.69;100863.19;6193028;23;20028;-79
2023/04/20 08:52:50;;;;;;;11.38;7.30;;;;;;;6.92;86.33;100857.09;6193484;23;20025;-83
2023/04/20 08:55:22;;;;;;;10.00;7.38;;;;;;;6.92;86.44;100867.50;6194373;23;20037;-82
2023/04/20 08:57:52;;;;;;;12.70;6.80;;;;;;;6.89;86.21;100855.56;6192924;23;20021;-80
2023/04/20 09:00:48;;;;;;;10.35;6.78;;;;;;;7.07;85.87;100860.22;6191104;23;20020;-81
2023/04/20 09:10:40;;;;;;;8.73;7.22;;;;;;;7.18;84.50;100873.13;6145778;23;20021;-90
2023/04/20 09:13:07;;;;;;;8.30;6.90;;;;;;;7.38;83.66;100867.09;6193278;23;20020;-89
2023/04/20 09:15:34;;;;;;;9.43;7.55;;;;;;;7.31;84.19;100858.13;6191789;23;20021;-88
2023/04/20 09:18:12;;;;;;;8.20;6.95;;;;;;;7.35;84.23;100856.94;6191538;23;20017;-90
2023/04/20 09:20:39;;;;;;;9.98;7.30;;;;;;;7.82;84.40;100872.88;6192500;23;20040;-89
2023/04/20 09:23:14;;;;;;;10.65;7.90;;;;;;;7.80;84.28;100864.38;6192637;23;20047;-88
2023/04/20 09:25:44;;;;;;;11.30;7.90;;;;;;;7.83;84.61;100869.31;6193482;23;20039;-86
2023/04/20 09:28:13;;;;;;;9.90;7.50;;;;;;;8.01;84.36;100848.66;6194033;23;20032;-91
2023/04/20 09:30:41;;;;;;;9.77;8.00;;;;;;;8.15;84.20;100858.69;6194864;23;20055;-90
2023/04/20 09:33:10;;;;;;;9.52;7.72;;;;;;;8.21;84.39;100851.16;6193328;23;20040;-90
2023/04/20 09:35:39;;;;;;;8.77;6.95;;;;;;;8.28;83.85;100857.47;6194012;23;20025;-90
2023/04/20 09:38:06;;;;;;;8.10;6.90;;;;;;;8.21;83.95;100843.34;6196164;23;20013;-90
2023/04/20 09:40:35;;;;;;;9.10;7.18;;;;;;;8.32;83.67;100834.56;6198974;23;20017;-91
2023/04/20 09:43:13;;;;;;;9.57;6.88;;;;;;;8.51;82.90;100831.16;6206375;23;20065;-89
2023/04/20 09:45:43;;;;;;;7.50;6.65;;;;;;;8.59;81.44;100815.63;6206952;23;20025;-90
2023/04/20 09:48:10;;;;;;;8.38;6.68;;;;;;;8.43;81.37;100810.19;6205044;23;20021;-91
2023/04/20 09:50:57;;;;;;;8.48;6.55;;;;;;;8.58;81.07;100808.78;6210126;23;20005;-90
2023/04/20 09:53:38;;;;;;;8.40;6.60;;;;;;;8.53;80.30;100826.63;6206290;23;20021;-91
2023/04/20 09:56:08;;;;;;;12.68;7.25;;;;;;;8.27;80.31;100808.06;6206821;23;20021;-91
2023/04/20 09:58:38;;;;;;;8.73;6.93;;;;;;;8.22;80.95;100821.53;6208488;23;20073;-89
2023/04/20 10:01:09;;;;;;;8.48;6.65;;;;;;;8.00;80.21;100829.59;6211070;23;20020;-90
2023/04/20 10:03:36;;;;;;;9.77;5.95;;;;;;;7.87;80.98;100839.44;6199207;23;20025;-90
2023/04/20 10:06:06;;;;;;;9.35;7.00;;;;;;;7.68;84.00;100871.44;6198616;23;20039;-93
2023/04/20 10:09:05;;;;;;;7.97;6.35;;;;;;;5.31;89.78;100886.34;6201709;23;20025;-93
2023/04/20 10:11:49;;;;;;;7.68;6.25;;;;;;;5.00;94.05;100883.47;6204132;23;20035;-92
2023/04/20 10:14:29;;;;;;;8.50;6.85;;;;;;;5.16;96.38;100884.91;6202939;23;20021;-91
2023/04/20 10:17:04;;;;;;;8.13;6.22;;;;;;;5.41;99.05;100886.47;6205377;23;20027;-91
2023/04/20 10:19:57;;;;;;;7.60;5.88;;;;;;;5.88;99.68;100894.03;6207226;23;20017;-93
2023/04/20 10:22:33;;;;;;;9.25;6.47;;;;;;;6.04;100.00;100883.31;6201682;23;20044;-93
2023/04/20 10:25:02;;;;;;;8.05;6.30;;;;;;;6.17;100.00;100880.53;6199970;23;20021;-92
2023/04/20 10:27:31;;;;;;;10.93;5.68;;;;;;;6.36;100.00;100898.09;6198998;23;20072;-90
2023/04/20 10:30:09;;;;;;;7.50;5.80;;;;;;;6.38;99.90;100878.00;6199151;23;20052;-91
2023/04/20 10:32:38;;;;;;;11.25;5.40;;;;;;;6.68;99.13;100880.72;6196359;23;20017;-91
2023/04/20 10:35:07;;;;;;;8.27;5.50;;;;;;;7.11;99.16;100852.00;6199327;23;20021;-91
2023/04/20 10:37:34;;;;;;;6.60;5.10;;;;;;;7.47;97.77;100848.09;6203977;23;20033;-92
2023/04/20 10:40:03;;;;;;;8.93;4.93;;;;;;;8.05;95.49;100840.41;6201076;23;20072;-92
2023/04/20 10:42:30;;;;;;;6.10;4.25;;;;;;;8.19;94.04;100839.22;6201462;23;20023;-91
2023/04/20 10:44:57;;;;;;;5.85;4.55;;;;;;;8.37;92.06;100835.00;6203502;23;20027;-92
2023/04/20 10:47:31;;;;;;;5.78;3.80;;;;;;;8.19;90.56;100832.22;6203014;23;20058;-93
2023/04/20 10:50:10;;;;;;;4.95;3.80;;;;;;;8.37;90.41;100832.41;6205554;23;20021;-93
2023/04/20 10:52:43;;;;;;;4.90;3.80;;;;;;;8.45;89.80;100840.38;6208810;23;20040;-91
2023/04/20 10:55:20;;;;;;;3.75;3.30;;;;;;;9.10;88.14;100836.16;6211426;23;20469;-90
2023/04/20 10:57:59;;;;;;;;;;;;;;;;;;;;;
2023/04/20 11:00:29;;;;;;;5.25;3.65;;;;;;;9.28;87.11;100826.63;6212137;23;20020;-92
2023/04/20 11:03:12;;;;;;;4.07;3.60;;;;;;;9.26;86.01;100838.19;6211700;23;20013;-90
2023/04/20 11:05:39;;;;;;;3.90;3.50;;;;;;;8.64;85.69;100842.97;6212298;23;20017;-91
2023/04/20 11:08:06;;;;;;;5.85;3.45;;;;;;;8.23;86.69;100817.13;6211473;23;20009;-91
2023/04/20 11:10:39;;;;;;;3.92;3.17;;;;;;;8.04;87.14;100819.69;6211210;23;20047;-90
2023/04/20 11:13:07;;;;;;;5.38;3.30;;;;;;;8.34;87.72;100831.84;6204465;23;20032;-91
2023/04/20 11:15:38;;;;;;;3.80;3.40;;;;;;;8.22;88.31;100805.88;6193084;23;20446;-92
2023/04/20 11:18:08;;;;;;;3.60;2.80;;;;;;;8.58;87.04;100821.81;6195437;23;20039;-93
2023/04/20 11:20:37;;;;;;;3.78;2.92;;;;;;;8.47;87.57;100814.97;6194370;23;20020;-91
2023/04/20 11:23:05;;;;;;;3.20;2.90;;;;;;;8.17;87.14;100810.66;6192955;23;20027;-92
2023/04/20 11:25:32;;;;;;;3.30;2.90;;;;;;;8.04;87.49;100797.06;6194093;23;20343;-92
2023/04/20 11:28:07;;;;;;;3.25;2.70;;;;;;;8.20;88.31;100831.25;6193079;23;20024;-92
2023/04/20 11:30:41;;;;;;;3.50;3.10;;;;;;;8.19;87.73;100832.22;6195947;23;20045;-91
2023/04/20 11:33:08;;;;;;;3.75;3.00;;;;;;;8.78;86.80;100810.41;6198208;23;20005;-92
2023/04/20 11:35:38;;;;;;;3.25;2.95;;;;;;;9.08;86.10;100808.53;6201719;23;20021;-90
2023/04/20 11:38:06;;;;;;;3.83;3.08;;;;;;;9.41;84.81;100813.25;6209901;23;20025;-91
2023/04/20 11:40:34;;;;;;;2.90;2.60;;;;;;;9.51;82.95;100780.03;6198052;23;20025;-90
2023/04/20 11:43:03;;;;;;;3.28;2.70;;;;;;;9.56;82.59;100775.22;6192039;23;20351;-91
2023/04/20 11:45:33;;;;;;;3.05;2.75;;;;;;;9.34;79.98;100787.84;6193209;23;20024;-90
2023/04/20 11:48:00;;;;;;;5.50;3.42;;;;;;;9.74;78.41;100788.31;6191040;23;20020;-91
2023/04/20 11:50:27;;;;;;;3.80;3.40;;;;;;;9.58;76.95;100773.28;6191333;23;20041;-91
2023/04/20 11:52:55;;;;;;;4.82;3.95;;;;;;;9.41;76.40;100766.25;6191966;23;20025;-90
2023/04/20 11:55:22;;;;;;;4.35;3.70;;;;;;;9.62;77.00;100774.63;6191197;23;20374;-91
2023/04/20 11:57:50;;;;;;;4.25;3.75;;;;;;;9.41;76.90;100781.91;6200284;23;20073;-91
2023/04/20 12:00:18;;;;;;;5.35;3.80;;;;;;;9.31;77.04;100791.56;6209846;23;20049;-92
2023/04/20 12:02:45;;;;;;;4.82;3.75;;;;;;;9.65;78.10;100810.09;6210177;23;20024;-92
2023/04/20 12:05:11;;;;;;;3.10;2.58;;;;;;;9.56;75.98;100775.22;6209638;23;20337;-91
2023/04/20 12:07:42;;;;;;;3.42;2.67;;;;;;;9.61;76.63;100796.50;6192869;23;20119;-88
2023/04/20 12:10:11;;;;;;;3.13;2.70;;;;;;;9.56;76.66;100788.28;6191677;23;20319;-90
2023/04/20 12:12:40;;;;;;;3.67;2.70;;;;;;;9.14;76.66;100792.31;6193917;23;20450;-92
2023/04/20 12:15:11;;;;;;;3.83;3.03;;;;;;;9.04;76.12;100794.13;6194501;23;20067;-90
2023/04/20 12:17:38;;;;;;;3.75;3.28;;;;;;;9.12;75.68;100776.78;6165867;23;20048;-90
2023/04/20 12:20:07;;;;;;;4.13;3.60;;;;;;;9.54;75.05;100784.97;6193489;23;20343;-89
2023/04/20 12:22:34;;;;;;;4.78;4.20;;;;;;;9.90;75.38;100774.63;6188496;23;20083;-89
2023/04/20 12:25:01;;;;;;;6.18;4.53;;;;;;;9.92;74.50;100785.75;6190741;23;20028;-90
2023/04/20 12:27:29;;;;;;;5.80;4.53;;;;;;;10.00;73.35;100783.19;6189604;23;20088;-89
2023/04/20 12:29:56;;;;;;;7.65;5.10;;;;;;;9.98;72.52;100749.34;6190821;23;20029;-90
2023/04/20 12:32:23;;;;;;;7.47;5.80;;;;;;;10.57;70.74;100760.16;6193672;23;20087;-90
2023/04/20 12:34:50;;;;;;;8.48;6.10;;;;;;;10.03;70.12;100745.47;6190598;23;20025;-90
2023/04/20 12:37:17;;;;;;;7.15;5.95;;;;;;;10.20;70.41;100769.03;6191607;23;20025;-90
2023/04/20 12:39:44;;;;;;;7.43;6.07;;;;;;;10.01;70.60;100769.16;6192259;23;20025;-90
2023/04/20 12:42:11;;;;;;;7.30;5.82;;;;;;;10.12;70.85;100750.63;6190075;23;20020;-90
2023/04/20 12:44:39;;;;;;;9.40;6.25;;;;;;;10.26;69.53;100752.75;6192747;23;20032;-89